createdAt,value
2022-11-05T00:02:23.443Z,99.90
2022-11-05T00:05:08.699Z,99.90
2022-11-05T00:08:00.479Z,99.90
2022-11-05T00:10:30.188Z,99.90
2022-11-05T00:13:17.371Z,99.90
2022-11-05T00:16:03.131Z,99.90
2022-11-05T00:18:30.126Z,99.90
2022-11-05T00:20:57.115Z,99.90
2022-11-05T00:23:42.421Z,99.90
2022-11-05T00:26:11.536Z,99.90
2022-11-05T00:28:41.694Z,99.90
2022-11-05T00:31:10.773Z,99.90
2022-11-05T00:33:38.905Z,99.90
2022-11-05T00:36:07.745Z,99.90
2022-11-05T00:38:35.393Z,99.90
2022-11-05T00:41:02.163Z,99.90
2022-11-05T00:43:47.431Z,99.90
2022-11-05T00:46:14.172Z,99.90
2022-11-05T00:48:59.419Z,99.90
2022-11-05T00:51:26.148Z,99.90
2022-11-05T00:53:52.890Z,99.90
2022-11-05T00:56:19.624Z,99.90
2022-11-05T00:58:46.444Z,99.90
2022-11-05T01:01:13.222Z,99.90
2022-11-05T01:03:40.702Z,99.90
2022-11-05T01:06:07.529Z,99.90
2022-11-05T01:08:34.313Z,99.90
2022-11-05T01:11:07.402Z,99.90
2022-11-05T01:13:34.153Z,99.90
2022-11-05T01:16:07.123Z,99.90
2022-11-05T01:18:34.207Z,99.90
2022-11-05T01:21:09.217Z,99.90
2022-11-05T01:23:35.976Z,99.90
2022-11-05T01:26:02.947Z,99.90
2022-11-05T01:28:29.717Z,99.90
2022-11-05T01:30:57.372Z,99.90
2022-11-05T01:33:25.006Z,99.90
2022-11-05T01:35:51.869Z,99.90
2022-11-05T01:38:19.320Z,99.90
2022-11-05T01:40:46.850Z,99.90
2022-11-05T01:43:22.095Z,99.90
2022-11-05T01:45:54.561Z,99.90
2022-11-05T01:48:32.492Z,99.90
2022-11-05T01:51:01.094Z,99.90
2022-11-05T01:53:34.412Z,99.90
2022-11-05T01:56:11.059Z,99.90
2022-11-05T01:58:45.098Z,99.90
2022-11-05T02:01:12.681Z,99.90
2022-11-05T02:03:40.058Z,99.90
2022-11-05T02:06:09.447Z,99.90
2022-11-05T02:08:59.785Z,99.90
2022-11-05T02:11:26.691Z,99.90
2022-11-05T02:13:53.589Z,99.90
2022-11-05T02:16:23.052Z,99.90
2022-11-05T02:18:56.703Z,99.90
2022-11-05T02:21:36.219Z,99.90
2022-11-05T02:24:35.894Z,99.90
2022-11-05T02:27:18.906Z,99.90
2022-11-05T02:30:24.490Z,99.90
2022-11-05T02:33:30.350Z,99.90
2022-11-05T02:36:27.374Z,99.90
2022-11-05T02:39:16.035Z,99.90
2022-11-05T02:42:04.900Z,99.90
2022-11-05T02:44:54.584Z,99.90
2022-11-05T02:47:27.063Z,99.90
2022-11-05T02:50:19.413Z,99.90
2022-11-05T02:53:18.802Z,99.90
2022-11-05T02:55:52.441Z,99.90
2022-11-05T02:58:19.181Z,99.90
2022-11-05T03:00:50.693Z,99.90
2022-11-05T03:03:36.086Z,99.90
2022-11-05T03:06:33.263Z,99.90
2022-11-05T03:09:33.420Z,99.90
2022-11-05T03:12:21.510Z,99.90
2022-11-05T03:15:11.901Z,99.90
2022-11-05T03:18:19.171Z,99.90
2022-11-05T03:20:45.940Z,99.90
2022-11-05T03:23:19.080Z,99.90
2022-11-05T03:25:55.440Z,99.90
2022-11-05T03:28:27.226Z,99.90
2022-11-05T03:30:55.170Z,99.90
2022-11-05T03:33:27.250Z,99.90
2022-11-05T03:35:58.174Z,99.90
2022-11-05T03:38:29.099Z,99.90
2022-11-05T03:41:00.432Z,99.90
2022-11-05T03:43:32.517Z,99.90
2022-11-05T03:46:27.681Z,99.90
2022-11-05T03:48:58.305Z,99.90
2022-11-05T03:51:29.980Z,99.90
2022-11-05T03:53:59.845Z,99.90
2022-11-05T03:56:43.835Z,99.90
2022-11-05T03:59:12.042Z,99.90
2022-11-05T04:01:39.484Z,99.90
2022-11-05T04:04:07.541Z,99.90
2022-11-05T04:06:53.365Z,99.90
2022-11-05T04:09:38.833Z,99.90
2022-11-05T04:12:25.660Z,99.90
2022-11-05T04:14:52.430Z,99.90
2022-11-05T04:17:19.168Z,99.90
2022-11-05T04:20:04.856Z,99.90
2022-11-05T04:22:52.086Z,99.90
2022-11-05T04:25:20.306Z,99.90
2022-11-05T04:27:47.611Z,99.90
2022-11-05T04:30:19.189Z,99.90
2022-11-05T04:33:18.428Z,99.90
2022-11-05T04:35:47.541Z,99.90
2022-11-05T04:38:16.698Z,99.90
2022-11-05T04:40:44.610Z,99.90
2022-11-05T04:43:17.089Z,99.90
2022-11-05T04:45:44.726Z,99.90
2022-11-05T04:48:11.821Z,99.90
2022-11-05T04:50:39.287Z,99.90
2022-11-05T04:53:06.023Z,99.90
2022-11-05T04:55:32.778Z,99.90
2022-11-05T04:57:59.560Z,99.90
2022-11-05T05:00:26.458Z,99.90
2022-11-05T05:02:53.244Z,99.90
2022-11-05T05:05:21.291Z,99.90
2022-11-05T05:07:48.075Z,99.90
2022-11-05T05:10:14.806Z,99.90
2022-11-05T05:12:41.605Z,99.90
2022-11-05T05:15:08.710Z,99.90
2022-11-05T05:17:35.475Z,99.90
2022-11-05T05:20:20.733Z,99.90
2022-11-05T05:22:54.693Z,99.90
2022-11-05T05:25:22.428Z,99.90
2022-11-05T05:27:49.194Z,99.90
2022-11-05T05:30:15.982Z,99.90
2022-11-05T05:32:42.715Z,99.90
2022-11-05T05:35:10.124Z,99.90
2022-11-05T05:37:36.894Z,99.90
2022-11-05T05:40:03.869Z,99.90
2022-11-05T05:42:30.648Z,99.90
2022-11-05T05:44:57.382Z,99.90
2022-11-05T05:47:24.120Z,99.90
2022-11-05T05:49:50.888Z,99.90
2022-11-05T05:52:17.706Z,99.90
2022-11-05T05:54:44.498Z,99.90
2022-11-05T05:57:11.234Z,99.90
2022-11-05T05:59:38.031Z,99.90
2022-11-05T06:02:05.074Z,99.90
2022-11-05T06:04:31.916Z,99.90
2022-11-05T06:06:58.662Z,99.90
2022-11-05T06:09:25.393Z,99.90
2022-11-05T06:11:52.140Z,99.90
2022-11-05T06:14:18.862Z,99.90
2022-11-05T06:16:45.622Z,99.90
2022-11-05T06:19:12.853Z,99.90
2022-11-05T06:21:39.626Z,99.90
2022-11-05T06:24:06.745Z,99.90
2022-11-05T06:26:34.002Z,99.90
2022-11-05T06:29:00.749Z,99.90
2022-11-05T06:31:27.495Z,99.90
2022-11-05T06:33:54.225Z,99.90
2022-11-05T06:36:21.339Z,99.90
2022-11-05T06:38:48.133Z,99.90
2022-11-05T06:41:15.160Z,99.90
2022-11-05T06:43:42.316Z,99.90
2022-11-05T06:46:11.299Z,99.90
2022-11-05T06:48:38.662Z,99.90
2022-11-05T06:51:07.513Z,99.90
2022-11-05T06:53:35.179Z,99.90
2022-11-05T06:56:03.769Z,99.90
2022-11-05T06:58:31.253Z,99.90
2022-11-05T07:01:06.212Z,99.90
2022-11-05T07:03:32.948Z,99.90
2022-11-05T07:06:00.905Z,99.90
2022-11-05T07:08:31.989Z,99.90
2022-11-05T07:10:59.474Z,99.90
2022-11-05T07:13:26.692Z,99.90
2022-11-05T07:15:53.549Z,99.90
2022-11-05T07:18:20.417Z,99.90
2022-11-05T07:20:47.183Z,99.90
2022-11-05T07:23:15.342Z,99.90
2022-11-05T07:25:43.002Z,99.90
2022-11-05T07:28:10.752Z,99.90
2022-11-05T07:30:37.904Z,99.90
2022-11-05T07:33:05.012Z,99.90
2022-11-05T07:35:32.161Z,99.90
2022-11-05T07:37:58.958Z,99.90
2022-11-05T07:40:28.246Z,99.90
2022-11-05T07:42:59.940Z,99.90
2022-11-05T07:45:29.025Z,99.90
2022-11-05T07:48:01.251Z,99.90
2022-11-05T07:50:31.351Z,99.90
2022-11-05T07:53:12.118Z,99.90
2022-11-05T07:55:41.163Z,99.90
2022-11-05T07:58:08.245Z,99.90
2022-11-05T08:00:35.121Z,99.90
2022-11-05T08:03:10.452Z,99.90
2022-11-05T08:05:39.571Z,99.90
2022-11-05T08:08:08.154Z,99.90
2022-11-05T08:10:35.830Z,99.90
2022-11-05T08:13:02.802Z,99.90
2022-11-05T08:15:30.249Z,99.90
2022-11-05T08:18:04.888Z,99.90
2022-11-05T08:20:32.061Z,99.90
2022-11-05T08:22:58.863Z,99.90
2022-11-05T08:25:26.243Z,99.90
2022-11-05T08:28:05.040Z,99.90
2022-11-05T08:30:32.601Z,99.90
2022-11-05T08:33:08.995Z,99.90
2022-11-05T08:35:37.408Z,99.90
2022-11-05T08:38:06.045Z,99.90
2022-11-05T08:40:34.752Z,99.90
2022-11-05T08:43:03.389Z,99.90
2022-11-05T08:45:31.023Z,99.90
2022-11-05T08:48:02.386Z,99.90
2022-11-05T08:50:29.614Z,99.90
2022-11-05T08:52:56.571Z,99.90
2022-11-05T08:55:23.809Z,99.90
2022-11-05T08:58:05.568Z,99.90
2022-11-05T09:00:35.384Z,99.90
2022-11-05T09:03:04.175Z,99.90
2022-11-05T09:05:37.536Z,99.90
2022-11-05T09:08:05.401Z,99.90
2022-11-05T09:10:32.389Z,99.90
2022-11-05T09:12:59.140Z,99.90
2022-11-05T09:15:25.897Z,99.90
2022-11-05T09:17:52.862Z,99.90
2022-11-05T09:20:19.670Z,99.90
2022-11-05T09:22:46.729Z,99.90
2022-11-05T09:25:15.300Z,99.90
2022-11-05T09:27:42.616Z,99.90
2022-11-05T09:30:10.970Z,99.90
2022-11-05T09:32:38.037Z,99.90
2022-11-05T09:35:05.525Z,99.90
2022-11-05T09:37:32.650Z,99.90
2022-11-05T09:39:59.441Z,99.90
2022-11-05T09:42:31.613Z,99.90
2022-11-05T09:45:14.986Z,99.90
2022-11-05T09:47:45.841Z,99.90
2022-11-05T09:50:18.829Z,99.90
2022-11-05T09:52:45.907Z,99.90
2022-11-05T09:55:29.001Z,99.90
2022-11-05T09:58:02.824Z,99.90
2022-11-05T10:00:31.199Z,99.90
2022-11-05T10:03:04.003Z,99.90
2022-11-05T10:05:33.036Z,99.90
2022-11-05T10:08:05.267Z,99.90
2022-11-05T10:10:47.715Z,97.90
2022-11-05T10:13:26.661Z,98.60
2022-11-05T10:16:21.702Z,99.90
2022-11-05T10:18:54.258Z,99.00
2022-11-05T10:21:37.617Z,99.90
2022-11-05T10:24:20.205Z,99.90
2022-11-05T10:26:49.479Z,99.90
2022-11-05T10:29:36.636Z,99.90
2022-11-05T10:32:05.760Z,99.90
2022-11-05T10:34:36.829Z,99.90
2022-11-05T10:37:04.198Z,99.90
2022-11-05T10:39:33.381Z,96.90
2022-11-05T10:42:21.630Z,95.90
2022-11-05T10:45:04.719Z,95.50
2022-11-05T10:47:43.365Z,99.90
2022-11-05T10:50:13.845Z,99.40
2022-11-05T10:52:52.410Z,99.70
2022-11-05T10:55:34.442Z,99.90
2022-11-05T10:58:08.867Z,99.90
2022-11-05T11:00:36.628Z,99.60
2022-11-05T11:03:06.520Z,99.90
2022-11-05T11:05:36.914Z,99.90
2022-11-05T11:08:06.663Z,99.20
2022-11-05T11:10:50.998Z,99.90
2022-11-05T11:13:26.869Z,99.90
2022-11-05T11:15:54.145Z,99.30
2022-11-05T11:18:42.524Z,97.30
2022-11-05T11:21:15.587Z,97.30
2022-11-05T11:23:43.647Z,96.50
2022-11-05T11:26:12.521Z,96.40
2022-11-05T11:28:49.014Z,99.40
2022-11-05T11:31:21.174Z,96.50
2022-11-05T11:33:51.009Z,95.00
2022-11-05T11:36:24.282Z,95.20
2022-11-05T11:38:51.225Z,95.10
2022-11-05T11:41:28.169Z,94.60
2022-11-05T11:44:02.038Z,92.70
2022-11-05T11:46:33.959Z,91.90
2022-11-05T11:49:01.134Z,92.60
2022-11-05T11:51:40.408Z,91.90
2022-11-05T11:54:19.698Z,94.00
2022-11-05T11:56:48.503Z,92.90
2022-11-05T12:02:37.888Z,93.50
2022-11-05T12:05:07.669Z,93.10
2022-11-05T12:07:49.803Z,93.30
2022-11-05T12:10:38.192Z,93.20
2022-11-05T12:13:20.590Z,93.90
2022-11-05T12:16:19.280Z,91.40
2022-11-05T12:19:05.430Z,93.30
2022-11-05T12:21:55.314Z,90.60
2022-11-05T12:24:32.570Z,91.30
2022-11-05T12:27:20.562Z,89.70
2022-11-05T12:29:47.237Z,90.40
2022-11-05T12:32:53.006Z,91.10
2022-11-05T12:35:49.856Z,90.60
2022-11-05T12:38:43.689Z,91.30
2022-11-05T12:41:41.404Z,89.70
2022-11-05T12:44:27.558Z,89.00
2022-11-05T12:47:06.432Z,90.80
2022-11-05T12:49:45.200Z,88.80
2022-11-05T12:52:29.047Z,90.00
2022-11-05T12:54:59.070Z,89.60
2022-11-05T12:57:28.827Z,89.90
2022-11-05T13:00:05.505Z,90.70
2022-11-05T13:02:41.191Z,88.80
2022-11-05T13:05:19.964Z,90.30
2022-11-05T13:08:25.303Z,90.70
2022-11-05T13:11:23.732Z,90.00
2022-11-05T13:14:11.969Z,89.00
2022-11-05T13:16:47.768Z,88.40
2022-11-05T13:19:41.085Z,92.00
2022-11-05T13:22:37.164Z,91.60
2022-11-05T13:25:19.210Z,89.40
2022-11-05T13:27:54.993Z,90.20
2022-11-05T13:30:24.671Z,91.00
2022-11-05T13:33:13.651Z,91.00
2022-11-05T13:35:49.768Z,90.50
2022-11-05T13:38:44.189Z,90.00
2022-11-05T13:41:56.085Z,89.10
2022-11-05T13:44:37.097Z,90.20
2022-11-05T13:47:31.318Z,90.50
2022-11-05T13:50:03.940Z,92.00
2022-11-05T13:52:53.026Z,91.40
2022-11-05T13:55:26.190Z,90.50
2022-11-05T13:58:10.914Z,89.80
2022-11-05T14:00:55.015Z,89.20
2022-11-05T14:03:22.235Z,90.80
2022-11-05T14:06:02.264Z,92.10
2022-11-05T14:08:32.955Z,89.60
2022-11-05T14:11:07.159Z,90.90
2022-11-05T14:13:40.688Z,89.50
2022-11-05T14:16:10.491Z,92.10
2022-11-05T14:18:45.041Z,89.70
2022-11-05T14:21:27.256Z,84.10
2022-11-05T14:24:14.101Z,89.30
2022-11-05T14:26:40.927Z,87.20
2022-11-05T14:29:10.665Z,89.80
2022-11-05T14:32:09.580Z,91.50
2022-11-05T14:34:42.838Z,91.40
2022-11-05T14:37:12.721Z,88.90
2022-11-05T14:39:40.967Z,88.30
2022-11-05T14:42:12.155Z,87.50
2022-11-05T14:45:01.458Z,90.30
2022-11-05T14:47:38.651Z,88.00
2022-11-05T14:50:36.814Z,89.30
2022-11-05T14:53:26.214Z,90.30
2022-11-05T14:56:09.696Z,91.70
2022-11-05T14:58:44.339Z,94.20
2022-11-05T15:01:14.254Z,94.70
2022-11-05T15:03:45.808Z,92.90
2022-11-05T15:06:52.597Z,92.60
2022-11-05T15:09:47.445Z,90.00
2022-11-05T15:12:30.117Z,90.70
2022-11-05T15:15:21.529Z,91.70
2022-11-05T15:18:03.719Z,94.20
2022-11-05T15:20:40.333Z,93.10
2022-11-05T15:23:12.682Z,92.10
2022-11-05T15:26:07.127Z,91.10
2022-11-05T15:28:51.840Z,94.30
2022-11-05T15:31:26.911Z,95.60
2022-11-05T15:34:18.400Z,92.00
2022-11-05T15:36:56.543Z,93.70
2022-11-05T15:39:29.764Z,94.20
2022-11-05T15:41:58.677Z,92.50
2022-11-05T15:44:34.842Z,94.20
2022-11-05T15:47:12.241Z,95.40
2022-11-05T15:49:39.467Z,96.90
2022-11-05T15:52:09.142Z,96.60
2022-11-05T15:54:36.324Z,98.50
2022-11-05T15:57:03.651Z,99.00
2022-11-05T15:59:31.085Z,99.90
2022-11-05T16:02:05.958Z,99.80
2022-11-05T16:04:34.830Z,96.10
2022-11-05T16:07:09.578Z,96.60
2022-11-05T16:09:40.122Z,95.90
2022-11-05T16:12:19.428Z,95.40
2022-11-05T16:15:08.082Z,96.00
2022-11-05T16:17:45.909Z,97.00
2022-11-05T16:20:29.663Z,96.50
2022-11-05T16:23:52.064Z,96.80
2022-11-05T16:29:36.166Z,97.50
2022-11-05T16:32:14.701Z,96.60
2022-11-05T16:34:46.860Z,98.50
2022-11-05T16:37:16.492Z,99.30
2022-11-05T16:39:43.251Z,99.70
2022-11-05T16:42:34.200Z,99.60
2022-11-05T16:45:00.922Z,99.90
2022-11-05T16:47:27.674Z,99.90
2022-11-05T16:49:54.511Z,99.90
2022-11-05T16:52:21.393Z,99.90
2022-11-05T16:54:48.198Z,99.90
2022-11-05T16:57:32.515Z,99.90
2022-11-05T17:00:00.555Z,99.90
2022-11-05T17:02:28.141Z,99.90
2022-11-05T17:04:55.109Z,99.90
2022-11-05T17:07:21.907Z,99.90
2022-11-05T17:09:48.768Z,99.90
2022-11-05T17:12:15.672Z,99.90
2022-11-05T17:14:42.457Z,99.90
2022-11-05T17:17:10.226Z,99.90
2022-11-05T17:19:42.190Z,99.90
2022-11-05T17:22:09.098Z,99.90
2022-11-05T17:24:35.941Z,99.90
2022-11-05T17:27:02.753Z,99.90
2022-11-05T17:29:29.547Z,99.90
2022-11-05T17:31:56.419Z,99.90
2022-11-05T17:34:23.183Z,99.90
2022-11-05T17:36:49.979Z,99.90
2022-11-05T17:39:16.771Z,99.90
2022-11-05T17:41:43.743Z,99.90
2022-11-05T17:44:11.931Z,99.90
2022-11-05T17:46:38.754Z,99.90
2022-11-05T17:49:05.629Z,99.90
2022-11-05T17:51:34.241Z,99.90
2022-11-05T17:54:01.085Z,99.90
2022-11-05T17:56:34.356Z,99.90
2022-11-05T17:59:03.573Z,99.90
2022-11-05T18:01:33.018Z,99.90
2022-11-05T18:04:05.498Z,99.90
2022-11-05T18:06:36.335Z,99.90
2022-11-05T18:09:04.525Z,99.90
2022-11-05T18:11:32.215Z,99.90
2022-11-05T18:13:59.085Z,99.90
2022-11-05T18:16:25.963Z,99.90
2022-11-05T18:18:52.813Z,99.90
2022-11-05T18:21:19.618Z,99.90
2022-11-05T18:23:46.573Z,99.90
2022-11-05T18:26:15.691Z,99.90
2022-11-05T18:28:43.526Z,99.90
2022-11-05T18:31:20.640Z,99.90
2022-11-05T18:33:54.733Z,99.90
2022-11-05T18:36:25.186Z,99.90
2022-11-05T18:38:52.746Z,99.90
2022-11-05T18:41:20.974Z,99.90
2022-11-05T18:43:47.965Z,99.90
2022-11-05T18:46:35.894Z,99.90
2022-11-05T18:49:02.545Z,99.90
2022-11-05T18:51:29.366Z,99.90
2022-11-05T18:53:56.634Z,99.90
2022-11-05T18:56:23.400Z,99.90
2022-11-05T18:59:03.329Z,99.90
2022-11-05T19:01:39.855Z,99.90
2022-11-05T19:04:06.709Z,99.90
2022-11-05T19:06:35.379Z,99.90
2022-11-05T19:09:03.375Z,99.90
2022-11-05T19:11:30.334Z,99.90
2022-11-05T19:13:57.187Z,99.90
2022-11-05T19:16:26.678Z,99.90
2022-11-05T19:18:53.906Z,99.90
2022-11-05T19:21:23.332Z,99.90
2022-11-05T19:23:51.378Z,99.90
2022-11-05T19:26:27.209Z,99.90
2022-11-05T19:28:56.729Z,99.90
2022-11-05T19:31:23.969Z,99.90
2022-11-05T19:33:52.411Z,99.90
2022-11-05T19:36:20.839Z,99.90
2022-11-05T19:38:52.440Z,99.90
2022-11-05T19:41:19.394Z,99.90
2022-11-05T19:43:46.713Z,99.90
2022-11-05T19:46:17.030Z,99.90
2022-11-05T19:48:44.313Z,99.90
2022-11-05T19:51:15.514Z,99.90
2022-11-05T19:53:43.141Z,99.90
2022-11-05T19:56:13.932Z,99.90
2022-11-05T19:58:41.192Z,99.90
2022-11-05T20:01:08.894Z,99.90
2022-11-05T20:03:37.698Z,99.90
2022-11-05T20:06:11.088Z,99.90
2022-11-05T20:08:53.363Z,99.90
2022-11-05T20:11:25.416Z,99.90
2022-11-05T20:13:52.614Z,99.90
2022-11-05T20:16:25.983Z,99.90
2022-11-05T20:18:53.027Z,99.90
2022-11-05T20:21:20.382Z,99.90
2022-11-05T20:23:47.542Z,99.90
2022-11-05T20:26:15.299Z,99.90
2022-11-05T20:28:43.775Z,99.90
2022-11-05T20:31:13.356Z,99.90
2022-11-05T20:33:41.072Z,99.90
2022-11-05T20:36:10.764Z,99.90
2022-11-05T20:38:37.898Z,99.90
2022-11-05T20:41:09.804Z,99.90
2022-11-05T20:43:37.966Z,99.90
2022-11-05T20:46:05.182Z,99.90
2022-11-05T20:48:33.538Z,99.90
2022-11-05T20:51:05.820Z,99.90
2022-11-05T20:53:32.793Z,99.90
2022-11-05T20:56:02.523Z,99.90
2022-11-05T20:58:33.500Z,99.90
2022-11-05T21:01:00.402Z,99.90
2022-11-05T21:03:27.316Z,99.90
2022-11-05T21:05:59.825Z,99.90
2022-11-05T21:08:27.725Z,99.90
2022-11-05T21:10:55.073Z,99.90
2022-11-05T21:13:22.365Z,99.90
2022-11-05T21:15:51.563Z,99.90
2022-11-05T21:18:20.242Z,99.90
2022-11-05T21:20:47.525Z,99.90
2022-11-05T21:23:15.495Z,99.90
2022-11-05T21:25:43.239Z,99.90
2022-11-05T21:28:11.945Z,99.90
2022-11-05T21:30:47.565Z,99.90
2022-11-05T21:33:16.458Z,99.90
2022-11-05T21:36:10.941Z,99.90
2022-11-05T21:38:38.428Z,99.90
2022-11-05T21:41:05.757Z,99.90
2022-11-05T21:43:32.695Z,99.90
2022-11-05T21:46:03.649Z,99.90
2022-11-05T21:48:31.441Z,99.90
2022-11-05T21:51:16.828Z,99.90
2022-11-05T21:54:02.222Z,99.90
2022-11-05T21:56:47.349Z,99.90
2022-11-05T21:59:38.270Z,99.90
2022-11-05T22:02:05.820Z,99.90
2022-11-05T22:04:42.701Z,99.90
2022-11-05T22:07:12.430Z,99.90
2022-11-05T22:09:39.393Z,99.90
2022-11-05T22:12:06.838Z,99.90
2022-11-05T22:14:34.065Z,99.90
2022-11-05T22:17:01.302Z,99.90
2022-11-05T22:19:28.086Z,99.90
2022-11-05T22:21:54.947Z,99.90
2022-11-05T22:24:22.290Z,99.90
2022-11-05T22:26:49.502Z,99.90
2022-11-05T22:29:16.889Z,99.90
2022-11-05T22:31:44.260Z,99.90
2022-11-05T22:34:11.604Z,99.90
2022-11-05T22:36:38.849Z,99.90
2022-11-05T22:39:06.434Z,99.90
2022-11-05T22:41:33.943Z,99.90
2022-11-05T22:44:00.953Z,99.90
2022-11-05T22:46:27.894Z,99.90
2022-11-05T22:48:56.258Z,99.90
2022-11-05T22:51:32.501Z,99.90
2022-11-05T22:54:00.251Z,99.90
2022-11-05T22:56:30.385Z,99.90
2022-11-05T22:58:58.046Z,99.90
2022-11-05T23:01:25.592Z,99.90
2022-11-05T23:03:54.482Z,99.90
2022-11-05T23:06:51.185Z,99.90
2022-11-05T23:09:37.921Z,99.90
2022-11-05T23:12:08.885Z,99.90
2022-11-05T23:14:36.733Z,99.90
2022-11-05T23:17:22.336Z,99.90
2022-11-05T23:20:07.813Z,99.90
2022-11-05T23:22:53.074Z,99.90
2022-11-05T23:25:22.316Z,99.90
2022-11-05T23:27:51.311Z,99.90
2022-11-05T23:30:20.784Z,99.90
2022-11-05T23:32:48.532Z,99.90
2022-11-05T23:35:16.007Z,99.90
2022-11-05T23:38:01.822Z,99.90
2022-11-05T23:40:31.151Z,99.90
2022-11-05T23:43:16.454Z,99.90
2022-11-05T23:46:03.274Z,99.90
2022-11-05T23:48:37.858Z,99.90
2022-11-05T23:51:11.101Z,99.90
2022-11-05T23:53:40.168Z,99.90
2022-11-05T23:56:15.093Z,99.90
2022-11-05T23:58:42.742Z,99.90
